Time,TemperatureF,DewpointF,PressureIn,WindDirection,WindDirectionDegrees,WindSpeedMPH,WindSpeedGustMPH,Humidity,HourlyPrecipIn,Conditions,Clouds,dailyrainin,SoftwareType,DateUTC
2013-08-17 00:23:00,66.0,64.0,-100.00,West,272,0.0,1.0,94,0.00,,,-99.99,,2013-08-17 04:23:00,
2013-08-17 00:32:00,66.0,64.0,-100.00,West,272,0.0,1.0,94,0.00,,,-99.99,,2013-08-17 04:32:00,
2013-08-17 00:44:00,66.0,64.0,-100.00,West,272,0.0,1.0,94,0.00,,,-99.99,,2013-08-17 04:44:00,
2013-08-17 01:23:00,65.0,64.0,-100.00,NW,306,1.0,3.0,95,0.00,,,-99.99,,2013-08-17 05:23:00,
2013-08-17 01:32:00,65.0,64.0,-100.00,NW,306,1.0,3.0,95,0.00,,,-99.99,,2013-08-17 05:32:00,
2013-08-17 01:42:00,65.0,64.0,-100.00,NW,306,1.0,3.0,95,0.00,,,-99.99,,2013-08-17 05:42:00,
2013-08-17 02:21:00,65.0,63.0,-100.00,NW,305,0.0,1.0,95,0.00,,,-99.99,,2013-08-17 06:21:00,
2013-08-17 02:32:00,65.0,63.0,-100.00,NW,305,0.0,1.0,95,0.00,,,-99.99,,2013-08-17 06:32:00,
2013-08-17 02:42:00,65.0,63.0,-100.00,NW,305,0.0,1.0,95,0.00,,,-99.99,,2013-08-17 06:42:00,
2013-08-17 03:22:00,64.0,63.0,-100.00,NNW,328,1.0,3.0,97,0.00,,,-99.99,,2013-08-17 07:22:00,
2013-08-17 03:32:00,64.0,63.0,-100.00,NNW,328,1.0,3.0,97,0.00,,,-99.99,,2013-08-17 07:32:00,
2013-08-17 03:42:00,64.0,63.0,-100.00,NNW,328,1.0,3.0,97,0.00,,,-99.99,,2013-08-17 07:42:00,
2013-08-17 04:21:00,63.0,63.0,-100.00,WNW,295,0.0,1.0,98,0.00,,,-99.99,,2013-08-17 08:21:00,
2013-08-17 04:33:00,63.0,63.0,-100.00,WNW,295,0.0,1.0,98,0.00,,,-99.99,,2013-08-17 08:33:00,
2013-08-17 04:42:00,63.0,63.0,-100.00,WNW,295,0.0,1.0,98,0.00,,,-99.99,,2013-08-17 08:42:00,
2013-08-17 05:22:00,62.0,61.0,-100.00,NNW,329,1.0,2.0,96,0.00,,,-99.99,,2013-08-17 09:22:00,
2013-08-17 05:33:00,62.0,61.0,-100.00,NNW,329,1.0,2.0,96,0.00,,,-99.99,,2013-08-17 09:33:00,
2013-08-17 05:43:00,62.0,61.0,-100.00,NNW,329,1.0,2.0,96,0.00,,,-99.99,,2013-08-17 09:43:00,
2013-08-17 06:23:00,59.0,58.0,-100.00,North,-999,0.0,0.0,96,0.00,,,-99.99,,2013-08-17 10:23:00,
2013-08-17 06:32:00,59.0,58.0,-100.00,North,-999,0.0,0.0,96,0.00,,,-99.99,,2013-08-17 10:32:00,
2013-08-17 06:42:00,59.0,58.0,-100.00,North,-999,0.0,0.0,96,0.00,,,-99.99,,2013-08-17 10:42:00,
2013-08-17 07:22:00,61.0,60.0,-100.00,NNW,344,0.0,1.0,97,0.00,,,-99.99,,2013-08-17 11:22:00,
2013-08-17 07:32:00,61.0,60.0,-100.00,NNW,344,0.0,1.0,97,0.00,,,-99.99,,2013-08-17 11:32:00,
2013-08-17 07:42:00,61.0,60.0,-100.00,NNW,344,0.0,1.0,97,0.00,,,-99.99,,2013-08-17 11:42:00,
2013-08-17 08:21:00,65.0,61.0,-100.00,North,350,3.0,6.0,87,0.00,,,-99.99,,2013-08-17 12:21:00,
2013-08-17 08:32:00,65.0,61.0,-100.00,North,350,3.0,6.0,87,0.00,,,-99.99,,2013-08-17 12:32:00,
2013-08-17 08:42:00,65.0,61.0,-100.00,North,350,3.0,6.0,87,0.00,,,-99.99,,2013-08-17 12:42:00,
2013-08-17 09:22:00,70.0,61.0,-100.00,North,360,2.0,5.0,73,0.00,,,-99.99,,2013-08-17 13:22:00,
2013-08-17 09:32:00,70.0,61.0,-100.00,North,360,2.0,5.0,73,0.00,,,-99.99,,2013-08-17 13:32:00,
2013-08-17 09:42:00,70.0,61.0,-100.00,North,360,2.0,5.0,73,0.00,,,-99.99,,2013-08-17 13:42:00,
2013-08-17 10:21:00,74.0,61.0,-100.00,NNE,24,2.0,5.0,62,0.00,,,-99.99,,2013-08-17 14:21:00,
2013-08-17 10:32:00,74.0,61.0,-100.00,NNE,24,2.0,5.0,62,0.00,,,-99.99,,2013-08-17 14:32:00,
2013-08-17 10:42:00,74.0,61.0,-100.00,NNE,24,2.0,5.0,62,0.00,,,-99.99,,2013-08-17 14:42:00,
2013-08-17 11:22:00,77.0,60.0,-100.00,NNW,330,1.0,4.0,54,0.00,,,-99.99,,2013-08-17 15:22:00,
2013-08-17 11:33:00,77.0,60.0,-100.00,NNW,330,1.0,4.0,54,0.00,,,-99.99,,2013-08-17 15:33:00,
2013-08-17 11:44:00,77.0,60.0,-100.00,NNW,330,1.0,4.0,54,0.00,,,-99.99,,2013-08-17 15:44:00,
2013-08-17 12:23:00,76.0,63.0,-100.00,South,187,3.0,6.0,65,0.00,,,-99.99,,2013-08-17 16:23:00,
2013-08-17 12:33:00,76.0,63.0,-100.00,South,187,3.0,6.0,65,0.00,,,-99.99,,2013-08-17 16:33:00,
2013-08-17 12:42:00,76.0,63.0,-100.00,South,187,3.0,6.0,65,0.00,,,-99.99,,2013-08-17 16:42:00,
2013-08-17 13:23:00,77.0,65.0,-100.00,South,190,3.0,7.0,68,0.00,,,-99.99,,2013-08-17 17:23:00,
2013-08-17 13:33:00,77.0,65.0,-100.00,South,190,3.0,7.0,68,0.00,,,-99.99,,2013-08-17 17:33:00,
2013-08-17 13:42:00,77.0,65.0,-100.00,South,190,3.0,7.0,68,0.00,,,-99.99,,2013-08-17 17:42:00,
2013-08-17 14:21:00,79.0,63.0,-100.00,WSW,240,1.0,5.0,58,0.00,,,-99.99,,2013-08-17 18:21:00,
2013-08-17 14:32:00,79.0,63.0,-100.00,WSW,240,1.0,5.0,58,0.00,,,-99.99,,2013-08-17 18:32:00,
2013-08-17 14:42:00,79.0,63.0,-100.00,WSW,240,1.0,5.0,58,0.00,,,-99.99,,2013-08-17 18:42:00,
2013-08-17 15:21:00,78.0,64.0,-100.00,SSW,203,2.0,6.0,62,0.00,,,-99.99,,2013-08-17 19:21:00,
2013-08-17 15:32:00,78.0,64.0,-100.00,SSW,203,2.0,6.0,62,0.00,,,-99.99,,2013-08-17 19:32:00,
2013-08-17 15:42:00,78.0,64.0,-100.00,SSW,203,2.0,6.0,62,0.00,,,-99.99,,2013-08-17 19:42:00,
2013-08-17 16:21:00,78.0,63.0,-100.00,SW,234,2.0,5.0,60,0.00,,,-99.99,,2013-08-17 20:21:00,
2013-08-17 16:32:00,78.0,63.0,-100.00,SW,234,2.0,5.0,60,0.00,,,-99.99,,2013-08-17 20:32:00,
2013-08-17 16:42:00,78.0,63.0,-100.00,SW,234,2.0,5.0,60,0.00,,,-99.99,,2013-08-17 20:42:00,
2013-08-17 17:22:00,79.0,59.0,-100.00,NNE,19,3.0,8.0,50,0.00,,,-99.99,,2013-08-17 21:22:00,
2013-08-17 17:33:00,79.0,59.0,-100.00,NNE,19,3.0,8.0,50,0.00,,,-99.99,,2013-08-17 21:33:00,
2013-08-17 17:42:00,79.0,59.0,-100.00,NNE,19,3.0,8.0,50,0.00,,,-99.99,,2013-08-17 21:42:00,
2013-08-17 18:23:00,77.0,61.0,-100.00,NE,56,2.0,6.0,58,0.00,,,-99.99,,2013-08-17 22:23:00,
2013-08-17 18:33:00,77.0,61.0,-100.00,NE,56,2.0,6.0,58,0.00,,,-99.99,,2013-08-17 22:33:00,
2013-08-17 18:42:00,77.0,61.0,-100.00,NE,56,2.0,6.0,58,0.00,,,-99.99,,2013-08-17 22:42:00,
2013-08-17 19:22:00,74.0,62.0,-100.00,ENE,66,0.0,2.0,65,0.00,,,-99.99,,2013-08-17 23:22:00,
2013-08-17 19:32:00,74.0,62.0,-100.00,ENE,66,0.0,2.0,65,0.00,,,-99.99,,2013-08-17 23:32:00,
2013-08-17 19:42:00,74.0,62.0,-100.00,ENE,66,0.0,2.0,65,0.00,,,-99.99,,2013-08-17 23:42:00,
2013-08-17 20:21:00,71.0,62.0,-100.00,East,96,0.0,1.0,74,0.00,,,-99.99,,2013-08-18 00:21:00,
2013-08-17 20:32:00,71.0,62.0,-100.00,East,96,0.0,1.0,74,0.00,,,-99.99,,2013-08-18 00:32:00,
2013-08-17 20:42:00,71.0,62.0,-100.00,East,96,0.0,1.0,74,0.00,,,-99.99,,2013-08-18 00:42:00,
2013-08-17 21:21:00,67.0,63.0,-100.00,NE,48,0.0,1.0,85,0.00,,,-99.99,,2013-08-18 01:21:00,
2013-08-17 21:32:00,67.0,63.0,-100.00,NE,48,0.0,1.0,85,0.00,,,-99.99,,2013-08-18 01:32:00,
2013-08-17 21:42:00,67.0,63.0,-100.00,NE,48,0.0,1.0,85,0.00,,,-99.99,,2013-08-18 01:42:00,
2013-08-17 22:21:00,65.0,62.0,-100.00,North,11,1.0,3.0,90,0.00,,,-99.99,,2013-08-18 02:21:00,
2013-08-17 22:32:00,65.0,62.0,-100.00,North,11,1.0,3.0,90,0.00,,,-99.99,,2013-08-18 02:32:00,
2013-08-17 22:42:00,65.0,62.0,-100.00,North,11,1.0,3.0,90,0.00,,,-99.99,,2013-08-18 02:42:00,
2013-08-17 23:22:00,64.0,62.0,-100.00,North,2,1.0,2.0,94,0.00,,,-99.99,,2013-08-18 03:22:00,
2013-08-17 23:33:00,64.0,62.0,-100.00,North,2,1.0,2.0,94,0.00,,,-99.99,,2013-08-18 03:33:00,
2013-08-17 23:43:00,64.0,62.0,-100.00,North,2,1.0,2.0,94,0.00,,,-99.99,,2013-08-18 03:43:00,